Seminole Manor, FL

1:23 PM EST on December 08, 2016 (GMT -0500)
TWO GEMS Wind & Weather | | Change Station

Elev 14 ft 26.59 °N, 80.11 °W | Updated 10 days ago

Mostly Cloudy
Mostly Cloudy
77.7 °F
Feels Like 79 °F
N
0.0
Wind Variable Wind from East
Gusts 0.0 mph

Today
High -- | Low -- °F
--% Chance of Precip.
Yesterday
High -- | Low -- °F
Precip. -- in
Pressure 30.08 in
Visibility 10.0 miles
Clouds Mostly Cloudy 2400 ft
Mostly Cloudy 3000 ft
Mostly Cloudy 12000 ft
Heat Index 79 °F
Dew Point 60.2 °F
Humidity 55%
Rainfall in
Snow Depth Not available.
6:56 AM 5:28 PM
Waxing Gibbous, 65% visible
METAR KPBI 081753Z 06010KT 10SM BKN024 BKN030 BKN120 25/21 A3008 RMK AO2 SLP186 T02500206 10267 20200 58016
Pressure 30.08 in
Visibility 10.0 miles
Clouds Mostly Cloudy 2400 ft
Mostly Cloudy 3000 ft
Mostly Cloudy 12000 ft
Heat Index 79 °F
Dew Point 60.2 °F
Humidity 55%
Rainfall in
Snow Depth Not available.
6:56 AM 5:28 PM
Waxing Gibbous, 65% visible
METAR KPBI 081753Z 06010KT 10SM BKN024 BKN030 BKN120 25/21 A3008 RMK AO2 SLP186 T02500206 10267 20200 58016

10-Day Weather Forecast

Almanac

Astronomy

Dec. 08, 2016 Rise Set
Actual Time
Civil Twilight
Nautical Twilight
Astronomical Twilight
Moon
Length of Visible Light
Length of Day
Tomorrow will be .
, % of the Moon is Illuminated

Today's Extremes

State Highs State Lows

Community

WunderPhotos

Upload Photos

1,956,277 photos uploaded!

WunderBlog® & News

Nearby

Air Quality

  Air Quality AQ Index Pollutant
Not available.

Snow Depth

Station Depth Elevation

Earthquake Activity

City Distance Mag. Time & Date
Minimum magnitude displayed is 2.5.

Coastal Water Temperatures

Place Temperature

Stations

Nearby Weather Stations

Station Location Temp. Windchill Dew Point Humidity Wind Precip. Elev Updated Type
                   

Watches & Warnings

There are currently no watches in effect.